createdAt,value
2022-10-22T00:02:22.867Z,33.20
2022-10-22T00:04:50.216Z,24.37
2022-10-22T00:07:19.897Z,24.27
2022-10-22T00:09:46.638Z,25.97
2022-10-22T00:12:13.804Z,21.57
2022-10-22T00:14:40.240Z,25.90
2022-10-22T00:17:10.469Z,23.80
2022-10-22T00:19:37.772Z,24.20
2022-10-22T00:22:07.084Z,21.47
2022-10-22T00:24:34.215Z,26.60
2022-10-22T00:27:00.694Z,24.87
2022-10-22T00:29:27.195Z,26.53
2022-10-22T00:31:53.586Z,28.10
2022-10-22T00:34:21.333Z,27.33
2022-10-22T00:36:51.338Z,32.57
2022-10-22T00:39:18.710Z,32.00
2022-10-22T00:41:46.020Z,29.93
2022-10-22T00:44:50.971Z,24.17
2022-10-22T00:47:18.619Z,25.87
2022-10-22T00:49:46.551Z,25.03
2022-10-22T00:52:13.239Z,24.83
2022-10-22T00:54:39.886Z,26.47
2022-10-22T00:57:06.360Z,26.50
2022-10-22T00:59:32.992Z,30.23
2022-10-22T01:01:59.519Z,27.67
2022-10-22T01:04:25.882Z,26.77
2022-10-22T01:06:52.279Z,24.20
2022-10-22T01:09:25.003Z,28.80
2022-10-22T01:12:12.056Z,26.07
2022-10-22T01:14:41.447Z,26.10
2022-10-22T01:17:17.187Z,30.47
2022-10-22T01:19:43.538Z,29.37
2022-10-22T01:22:19.039Z,31.87
2022-10-22T01:25:00.233Z,34.07
2022-10-22T01:27:31.445Z,39.53
2022-10-22T01:30:00.993Z,37.83
2022-10-22T01:32:29.366Z,40.17
2022-10-22T01:34:58.704Z,39.90
2022-10-22T01:37:25.823Z,36.17
2022-10-22T01:39:53.089Z,40.57
2022-10-22T01:42:19.521Z,41.90
2022-10-22T01:44:48.790Z,33.67
2022-10-22T01:47:17.886Z,32.90
2022-10-22T01:49:47.262Z,34.20
2022-10-22T01:52:13.927Z,34.50
2022-10-22T01:54:45.510Z,31.97
2022-10-22T01:57:16.849Z,48.70
2022-10-22T02:00:01.808Z,49.23
2022-10-22T02:02:34.369Z,39.03
2022-10-22T02:05:03.623Z,40.07
2022-10-22T02:07:33.009Z,35.03
2022-10-22T02:10:00.780Z,36.03
2022-10-22T02:12:28.102Z,33.37
2022-10-22T02:14:55.552Z,35.70
2022-10-22T02:17:22.365Z,30.90
2022-10-22T02:20:00.654Z,34.17
2022-10-22T02:22:27.768Z,32.53
2022-10-22T02:24:54.156Z,36.23
2022-10-22T02:27:25.754Z,35.67
2022-10-22T02:30:00.003Z,36.40
2022-10-22T02:32:28.371Z,35.93
2022-10-22T02:34:55.898Z,42.37
2022-10-22T02:37:23.431Z,35.80
2022-10-22T02:39:51.119Z,38.03
2022-10-22T02:42:18.290Z,36.37
2022-10-22T02:44:44.602Z,41.87
2022-10-22T02:47:10.952Z,39.67
2022-10-22T02:49:37.262Z,40.17
2022-10-22T02:52:03.916Z,41.03
2022-10-22T02:54:30.275Z,33.10
2022-10-22T02:56:56.594Z,35.80
2022-10-22T02:59:22.939Z,45.90
2022-10-22T03:01:49.275Z,40.47
2022-10-22T03:04:15.598Z,31.30
2022-10-22T03:06:44.033Z,29.07
2022-10-22T03:09:10.615Z,32.23
2022-10-22T03:11:37.011Z,34.37
2022-10-22T03:14:03.756Z,34.30
2022-10-22T03:16:30.098Z,40.67
2022-10-22T03:18:56.434Z,38.67
2022-10-22T03:21:25.571Z,35.93
2022-10-22T03:23:52.266Z,28.23
2022-10-22T03:26:18.774Z,34.37
2022-10-22T03:28:46.828Z,27.70
2022-10-22T03:31:13.172Z,30.20
2022-10-22T03:33:39.494Z,34.43
2022-10-22T03:36:06.798Z,34.83
2022-10-22T03:38:34.563Z,36.00
2022-10-22T03:41:00.951Z,37.83
2022-10-22T03:43:27.434Z,40.70
2022-10-22T03:45:53.759Z,37.40
2022-10-22T03:48:20.134Z,44.60
2022-10-22T03:50:46.502Z,30.90
2022-10-22T03:53:13.215Z,30.17
2022-10-22T03:55:40.885Z,30.63
2022-10-22T03:58:07.240Z,28.87
2022-10-22T04:00:34.802Z,36.27
2022-10-22T04:03:01.377Z,28.50
2022-10-22T04:05:27.788Z,36.50
2022-10-22T04:07:54.185Z,30.70
2022-10-22T04:10:20.532Z,29.30
2022-10-22T04:12:47.549Z,30.57
2022-10-22T04:15:17.098Z,26.90
2022-10-22T04:17:43.854Z,29.40
2022-10-22T04:20:10.575Z,27.07
2022-10-22T04:22:37.360Z,34.60
2022-10-22T04:25:04.691Z,33.50
2022-10-22T04:27:31.887Z,31.83
2022-10-22T04:29:58.438Z,25.80
2022-10-22T04:32:25.279Z,31.43
2022-10-22T04:34:51.643Z,30.40
2022-10-22T04:37:17.994Z,30.33
2022-10-22T04:39:44.342Z,29.27
2022-10-22T04:42:11.027Z,27.33
2022-10-22T04:44:37.364Z,28.13
2022-10-22T04:47:03.918Z,30.67
2022-10-22T04:49:30.261Z,26.00
2022-10-22T04:51:56.601Z,31.33
2022-10-22T04:54:23.206Z,30.23
2022-10-22T04:56:49.521Z,28.40
2022-10-22T04:59:15.915Z,28.33
2022-10-22T05:01:44.000Z,29.10
2022-10-22T05:04:14.758Z,25.27
2022-10-22T05:06:41.650Z,26.43
2022-10-22T05:09:10.893Z,27.67
2022-10-22T05:11:38.374Z,30.77
2022-10-22T05:14:05.838Z,28.80
2022-10-22T05:16:32.746Z,31.67
2022-10-22T05:19:00.212Z,31.27
2022-10-22T05:21:26.918Z,41.33
2022-10-22T05:23:54.849Z,38.10
2022-10-22T05:26:22.515Z,31.73
2022-10-22T05:28:49.330Z,47.63
2022-10-22T05:31:16.642Z,47.67
2022-10-22T05:33:43.613Z,42.43
2022-10-22T05:36:12.354Z,48.70
2022-10-22T05:38:38.747Z,82.57
2022-10-22T05:41:07.175Z,72.93
2022-10-22T05:43:33.722Z,62.17
2022-10-22T05:46:08.162Z,43.50
2022-10-22T05:48:34.866Z,48.10
2022-10-22T05:51:04.513Z,50.60
2022-10-22T05:53:34.336Z,48.00
2022-10-22T05:56:01.784Z,33.37
2022-10-22T05:58:28.189Z,67.90
2022-10-22T06:00:54.621Z,43.13
2022-10-22T06:03:20.938Z,55.77
2022-10-22T06:05:47.268Z,40.97
2022-10-22T06:08:18.241Z,36.47
2022-10-22T06:10:45.690Z,58.03
2022-10-22T06:13:12.034Z,41.63
2022-10-22T06:15:38.373Z,50.93
2022-10-22T06:18:04.869Z,40.33
2022-10-22T06:20:31.307Z,35.83
2022-10-22T06:22:58.239Z,35.00
2022-10-22T06:25:24.577Z,44.93
2022-10-22T06:27:51.837Z,61.23
2022-10-22T06:30:18.181Z,52.07
2022-10-22T06:32:44.501Z,178.10
2022-10-22T06:35:10.839Z,60.47
2022-10-22T06:37:37.410Z,39.30
2022-10-22T06:40:03.945Z,46.93
2022-10-22T06:42:30.363Z,38.43
2022-10-22T06:44:56.724Z,37.77
2022-10-22T06:47:23.122Z,34.63
2022-10-22T06:49:50.144Z,31.93
2022-10-22T06:52:16.644Z,34.03
2022-10-22T06:54:42.971Z,31.53
2022-10-22T06:57:09.299Z,36.53
2022-10-22T06:59:35.691Z,36.00
2022-10-22T07:02:02.351Z,33.20
2022-10-22T07:04:28.680Z,33.97
2022-10-22T07:06:55.318Z,37.70
2022-10-22T07:09:21.668Z,31.83
2022-10-22T07:11:47.993Z,33.70
2022-10-22T07:14:14.834Z,33.83
2022-10-22T07:16:45.722Z,32.47
2022-10-22T07:19:12.637Z,34.50
2022-10-22T07:21:39.051Z,34.37
2022-10-22T07:24:05.570Z,33.87
2022-10-22T07:26:32.742Z,32.70
2022-10-22T07:29:03.274Z,32.90
2022-10-22T07:31:29.715Z,33.50
2022-10-22T07:33:56.233Z,33.67
2022-10-22T07:36:22.558Z,45.77
2022-10-22T07:38:53.032Z,35.87
2022-10-22T07:41:19.447Z,35.63
2022-10-22T07:43:46.299Z,36.70
2022-10-22T07:46:13.218Z,39.63
2022-10-22T07:48:39.618Z,36.93
2022-10-22T07:51:05.996Z,38.30
2022-10-22T07:53:32.865Z,40.10
2022-10-22T07:55:59.245Z,33.60
2022-10-22T07:58:25.646Z,31.10
2022-10-22T08:00:54.822Z,35.07
2022-10-22T08:03:21.242Z,29.43
2022-10-22T08:05:47.668Z,27.40
2022-10-22T08:08:15.875Z,26.57
2022-10-22T08:10:43.031Z,26.73
2022-10-22T08:13:09.530Z,27.80
2022-10-22T08:15:36.355Z,30.80
2022-10-22T08:18:02.866Z,25.70
2022-10-22T08:20:29.292Z,27.73
2022-10-22T08:22:55.710Z,30.53
2022-10-22T08:25:22.075Z,27.93
2022-10-22T08:27:48.566Z,28.43
2022-10-22T08:30:15.002Z,23.63
2022-10-22T08:32:41.674Z,21.93
2022-10-22T08:35:08.145Z,26.57
2022-10-22T08:37:34.573Z,22.27
2022-10-22T08:40:00.950Z,24.00
2022-10-22T08:42:39.927Z,18.03
2022-10-22T08:45:12.425Z,18.10
2022-10-22T08:47:59.275Z,17.17
2022-10-22T08:50:33.734Z,18.67
2022-10-22T08:53:02.486Z,18.47
2022-10-22T08:55:30.272Z,18.77
2022-10-22T08:58:21.291Z,16.17
2022-10-22T09:00:52.394Z,19.83
2022-10-22T09:03:34.642Z,19.63
2022-10-22T09:06:01.000Z,11.53
2022-10-22T09:08:27.418Z,13.03
2022-10-22T09:11:13.076Z,16.80
2022-10-22T09:13:43.558Z,13.50
2022-10-22T09:16:30.707Z,14.40
2022-10-22T09:19:26.435Z,15.23
2022-10-22T09:21:52.766Z,12.87
2022-10-22T09:24:34.427Z,15.33
2022-10-22T09:27:01.383Z,13.07
2022-10-22T09:29:32.609Z,12.20
2022-10-22T09:31:59.167Z,13.17
2022-10-22T09:34:25.518Z,14.20
2022-10-22T09:36:59.640Z,10.63
2022-10-22T09:39:27.375Z,14.57
2022-10-22T09:41:53.870Z,10.25
2022-10-22T09:44:20.490Z,8.95
2022-10-22T09:46:46.908Z,12.38
2022-10-22T09:49:14.818Z,11.88
2022-10-22T09:51:55.126Z,10.77
2022-10-22T09:54:26.288Z,8.20
2022-10-22T09:56:55.788Z,9.40
2022-10-22T09:59:28.138Z,9.45
2022-10-22T10:02:08.384Z,8.20
2022-10-22T10:04:47.528Z,12.93
2022-10-22T10:07:18.697Z,8.32
2022-10-22T10:09:45.354Z,10.32
2022-10-22T10:12:23.186Z,9.85
2022-10-22T10:15:08.625Z,10.73
2022-10-22T10:17:53.730Z,10.30
2022-10-22T10:20:29.256Z,16.45
2022-10-22T10:23:14.512Z,8.27
2022-10-22T10:25:59.700Z,8.70
2022-10-22T10:28:33.309Z,9.57
2022-10-22T10:31:11.939Z,13.90
2022-10-22T10:33:43.643Z,6.35
2022-10-22T10:36:15.743Z,14.98
2022-10-22T10:38:45.256Z,9.27
2022-10-22T10:41:20.630Z,6.28
2022-10-22T10:44:05.616Z,13.23
2022-10-22T10:46:48.412Z,8.07
2022-10-22T10:49:17.279Z,8.35
2022-10-22T10:51:59.590Z,9.13
2022-10-22T10:54:30.442Z,10.23
2022-10-22T10:56:56.836Z,10.27
2022-10-22T10:59:28.176Z,9.70
2022-10-22T11:01:54.549Z,9.67
2022-10-22T11:04:24.792Z,6.67
2022-10-22T11:06:58.642Z,11.10
2022-10-22T11:09:30.723Z,8.67
2022-10-22T11:11:59.884Z,16.90
2022-10-22T11:14:27.925Z,10.20
2022-10-22T11:17:01.719Z,14.27
2022-10-22T11:19:50.851Z,9.33
2022-10-22T11:22:35.836Z,8.77
2022-10-22T11:25:17.868Z,8.93
2022-10-22T11:27:53.541Z,12.50
2022-10-22T11:30:21.148Z,11.83
2022-10-22T11:32:49.741Z,10.70
2022-10-22T11:35:20.217Z,6.97
2022-10-22T11:37:50.356Z,8.50
2022-10-22T11:40:21.113Z,11.77
2022-10-22T11:42:53.435Z,5.63
2022-10-22T11:45:25.559Z,9.97
2022-10-22T11:48:10.383Z,6.23
2022-10-22T11:50:49.036Z,8.30
2022-10-22T11:53:15.352Z,7.65
2022-10-22T11:55:51.769Z,12.10
2022-10-22T11:58:45.119Z,8.20
2022-10-22T12:01:11.477Z,8.18
2022-10-22T12:03:43.929Z,6.07
2022-10-22T12:06:13.207Z,8.77
2022-10-22T12:08:48.897Z,9.27
2022-10-22T12:11:17.319Z,14.13
2022-10-22T12:13:49.645Z,10.85
2022-10-22T12:16:23.590Z,4.45
2022-10-22T12:19:03.015Z,12.13
2022-10-22T12:21:29.422Z,9.02
2022-10-22T12:23:55.816Z,7.03
2022-10-22T12:26:26.286Z,10.15
2022-10-22T12:28:56.919Z,5.15
2022-10-22T12:31:23.268Z,9.00
2022-10-22T12:33:55.862Z,14.20
2022-10-22T12:36:22.207Z,8.30
2022-10-22T12:38:48.748Z,5.77
2022-10-22T12:41:15.264Z,12.40
2022-10-22T12:43:41.625Z,10.53
2022-10-22T12:46:16.294Z,8.03
2022-10-22T12:48:44.009Z,10.30
2022-10-22T12:51:15.410Z,6.43
2022-10-22T12:53:46.842Z,10.33
2022-10-22T12:56:15.925Z,9.77
2022-10-22T12:58:43.821Z,10.60
2022-10-22T13:01:14.256Z,10.87
2022-10-22T13:03:42.783Z,9.87
2022-10-22T13:06:24.269Z,7.17
2022-10-22T13:09:02.406Z,10.73
2022-10-22T13:11:33.966Z,5.97
2022-10-22T13:14:17.999Z,10.37
2022-10-22T13:17:02.210Z,7.93
2022-10-22T13:19:39.582Z,8.47
2022-10-22T13:22:24.109Z,12.67
2022-10-22T13:24:53.745Z,7.90
2022-10-22T13:27:20.284Z,10.70
2022-10-22T13:29:46.769Z,10.30
2022-10-22T13:32:29.078Z,10.03
2022-10-22T13:34:56.439Z,8.67
2022-10-22T13:37:22.803Z,15.53
2022-10-22T13:39:49.149Z,9.83
2022-10-22T13:42:15.476Z,8.60
2022-10-22T13:44:41.811Z,8.53
2022-10-22T13:47:19.538Z,10.70
2022-10-22T13:49:46.838Z,7.80
2022-10-22T13:52:17.619Z,11.77
2022-10-22T13:54:43.945Z,8.97
2022-10-22T13:57:10.567Z,9.07
2022-10-22T13:59:36.890Z,7.40
2022-10-22T14:02:06.459Z,10.90
2022-10-22T14:04:33.949Z,9.43
2022-10-22T14:07:02.975Z,13.40
2022-10-22T14:09:30.378Z,8.60
2022-10-22T14:11:56.807Z,8.03
2022-10-22T14:14:23.127Z,8.63
2022-10-22T14:16:49.510Z,13.80
2022-10-22T14:19:16.978Z,6.77
2022-10-22T14:21:43.583Z,10.93
2022-10-22T14:24:12.996Z,8.77
2022-10-22T14:26:39.873Z,10.50
2022-10-22T14:29:10.672Z,6.47
2022-10-22T14:31:42.073Z,9.50
2022-10-22T14:34:13.535Z,10.17
2022-10-22T14:36:39.953Z,10.23
2022-10-22T14:39:06.343Z,9.17
2022-10-22T14:41:32.740Z,8.50
2022-10-22T14:43:59.918Z,9.87
2022-10-22T14:46:26.428Z,9.97
2022-10-22T14:48:52.814Z,7.07
2022-10-22T14:51:20.071Z,15.67
2022-10-22T14:53:46.470Z,14.47
2022-10-22T14:56:13.954Z,12.63
2022-10-22T14:58:40.766Z,7.10
2022-10-22T15:01:07.771Z,6.43
2022-10-22T15:03:34.179Z,5.63
2022-10-22T15:06:00.681Z,10.17
2022-10-22T15:08:27.289Z,8.90
2022-10-22T15:11:04.054Z,9.17
2022-10-22T15:13:30.831Z,10.13
2022-10-22T15:15:57.843Z,9.63
2022-10-22T15:18:24.799Z,6.63
2022-10-22T15:20:58.689Z,12.70
2022-10-22T15:23:25.104Z,10.70
2022-10-22T15:25:51.553Z,7.90
2022-10-22T15:28:17.896Z,11.37
2022-10-22T15:30:44.253Z,10.23
2022-10-22T15:33:11.042Z,16.60
2022-10-22T15:35:37.417Z,12.97
2022-10-22T15:38:06.519Z,13.00
2022-10-22T15:40:32.964Z,10.23
2022-10-22T15:42:59.287Z,10.83
2022-10-22T15:45:25.810Z,10.83
2022-10-22T15:47:52.150Z,7.87
2022-10-22T15:50:18.478Z,10.97
2022-10-22T15:52:44.914Z,7.03
2022-10-22T15:55:14.651Z,9.67
2022-10-22T15:57:41.340Z,5.60
2022-10-22T16:00:08.523Z,9.37
2022-10-22T16:02:34.883Z,6.30
2022-10-22T16:05:01.305Z,8.63
2022-10-22T16:07:27.651Z,4.87
2022-10-22T16:09:58.238Z,8.07
2022-10-22T16:12:24.627Z,5.00
2022-10-22T16:14:51.328Z,5.53
2022-10-22T16:17:17.929Z,8.10
2022-10-22T16:19:44.291Z,10.73
2022-10-22T16:22:11.585Z,7.03
2022-10-22T16:24:41.212Z,10.97
2022-10-22T16:27:08.346Z,14.60
2022-10-22T16:29:36.558Z,12.77
2022-10-22T16:32:02.894Z,7.60
2022-10-22T16:34:29.314Z,9.77
2022-10-22T16:36:57.017Z,12.23
2022-10-22T16:39:23.878Z,8.57
2022-10-22T16:41:50.287Z,11.87
2022-10-22T16:44:16.692Z,17.87
2022-10-22T16:46:43.093Z,13.80
2022-10-22T16:49:09.511Z,13.07
2022-10-22T16:51:35.848Z,10.00
2022-10-22T16:54:03.663Z,17.60
2022-10-22T16:56:32.075Z,12.37
2022-10-22T16:58:58.897Z,9.60
2022-10-22T17:01:27.530Z,12.97
2022-10-22T17:03:56.757Z,12.80
2022-10-22T17:06:24.158Z,14.93
2022-10-22T17:08:50.550Z,14.30
2022-10-22T17:11:19.063Z,50.37
2022-10-22T17:13:46.853Z,12.53
2022-10-22T17:16:14.819Z,15.93
2022-10-22T17:18:41.821Z,13.27
2022-10-22T17:21:09.014Z,11.90
2022-10-22T17:23:35.357Z,14.00
2022-10-22T17:26:03.512Z,11.20
2022-10-22T17:28:29.895Z,9.33
2022-10-22T17:31:06.630Z,15.63
2022-10-22T17:33:33.492Z,12.90
2022-10-22T17:35:59.906Z,9.90
2022-10-22T17:38:26.623Z,11.10
2022-10-22T17:40:53.003Z,9.80
2022-10-22T17:43:19.534Z,11.83
2022-10-22T17:45:45.953Z,12.07
2022-10-22T17:48:12.351Z,13.73
2022-10-22T17:50:44.034Z,11.93
2022-10-22T17:53:13.275Z,11.83
2022-10-22T17:55:39.679Z,14.93
2022-10-22T17:58:06.035Z,11.70
2022-10-22T18:00:33.434Z,10.70
2022-10-22T18:03:00.706Z,16.80
2022-10-22T18:05:27.635Z,14.27
2022-10-22T18:07:55.148Z,15.67
2022-10-22T18:10:21.523Z,13.67
2022-10-22T18:12:47.850Z,14.20
2022-10-22T18:15:14.243Z,11.97
2022-10-22T18:17:41.574Z,10.90
2022-10-22T18:20:08.564Z,14.17
2022-10-22T18:22:35.522Z,12.73
2022-10-22T18:25:01.869Z,10.23
2022-10-22T18:27:28.219Z,16.53
2022-10-22T18:29:55.607Z,19.23
2022-10-22T18:32:22.034Z,17.83
2022-10-22T18:34:48.486Z,12.23
2022-10-22T18:37:14.862Z,12.53
2022-10-22T18:39:41.320Z,15.47
2022-10-22T18:42:07.800Z,11.97
2022-10-22T18:44:34.617Z,16.00
2022-10-22T18:47:00.971Z,15.50
2022-10-22T18:49:27.331Z,14.03
2022-10-22T18:51:53.759Z,19.70
2022-10-22T18:54:23.197Z,12.80
2022-10-22T18:56:50.463Z,9.40
2022-10-22T18:59:17.999Z,13.53
2022-10-22T19:01:44.431Z,19.10
2022-10-22T19:04:11.796Z,16.13
2022-10-22T19:06:40.695Z,14.97
2022-10-22T19:09:09.628Z,15.07
2022-10-22T19:11:36.311Z,14.17
2022-10-22T19:14:03.032Z,15.17
2022-10-22T19:16:29.449Z,15.40
2022-10-22T19:19:03.452Z,15.77
2022-10-22T19:21:30.116Z,13.90
2022-10-22T19:24:00.173Z,11.80
2022-10-22T19:26:27.791Z,17.10
2022-10-22T19:28:54.544Z,10.33
2022-10-22T19:31:22.052Z,16.37
2022-10-22T19:33:48.754Z,14.20
2022-10-22T19:36:16.243Z,17.77
2022-10-22T19:38:43.656Z,13.23
2022-10-22T19:41:12.513Z,11.63
2022-10-22T19:43:39.320Z,12.83
2022-10-22T19:46:06.150Z,12.63
2022-10-22T19:48:32.557Z,11.97
2022-10-22T19:51:00.130Z,16.93
2022-10-22T19:53:26.499Z,17.00
2022-10-22T19:55:52.903Z,13.73
2022-10-22T19:58:19.365Z,14.03
2022-10-22T20:00:45.793Z,13.57
2022-10-22T20:03:14.313Z,21.90
2022-10-22T20:05:42.646Z,11.77
2022-10-22T20:08:09.951Z,18.50
2022-10-22T20:10:36.374Z,17.83
2022-10-22T20:13:02.863Z,18.30
2022-10-22T20:15:31.047Z,13.40
2022-10-22T20:17:57.418Z,12.73
2022-10-22T20:20:26.458Z,14.30
2022-10-22T20:22:52.967Z,13.30
2022-10-22T20:25:19.319Z,14.17
2022-10-22T20:27:45.682Z,18.33
2022-10-22T20:30:12.297Z,15.30
2022-10-22T20:32:39.360Z,12.13
2022-10-22T20:35:06.670Z,17.10
2022-10-22T20:37:33.464Z,18.37
2022-10-22T20:39:59.814Z,13.83
2022-10-22T20:42:26.161Z,15.80
2022-10-22T20:44:52.473Z,17.30
2022-10-22T20:47:18.841Z,15.47
2022-10-22T20:49:45.191Z,17.90
2022-10-22T20:52:11.536Z,12.10
2022-10-22T20:54:41.490Z,19.20
2022-10-22T20:57:08.327Z,19.13
2022-10-22T20:59:35.184Z,17.60
2022-10-22T21:02:02.059Z,16.37
2022-10-22T21:04:28.783Z,15.50
2022-10-22T21:06:57.143Z,14.63
2022-10-22T21:09:23.775Z,17.70
2022-10-22T21:11:50.822Z,12.93
2022-10-22T21:14:19.829Z,19.83
2022-10-22T21:16:49.310Z,17.97
2022-10-22T21:19:16.326Z,14.40
2022-10-22T21:21:42.691Z,15.03
2022-10-22T21:24:09.136Z,22.97
2022-10-22T21:26:39.087Z,15.20
2022-10-22T21:29:05.440Z,18.43
2022-10-22T21:31:31.772Z,14.00
2022-10-22T21:33:58.178Z,17.33
2022-10-22T21:36:25.103Z,17.57
2022-10-22T21:38:52.155Z,18.70
2022-10-22T21:41:19.430Z,17.77
2022-10-22T21:43:46.161Z,18.83
2022-10-22T21:46:16.628Z,18.10
2022-10-22T21:48:43.007Z,27.17
2022-10-22T21:51:11.240Z,19.77
2022-10-22T21:53:37.954Z,30.37
2022-10-22T21:56:04.777Z,23.10
2022-10-22T21:58:31.299Z,27.53
2022-10-22T22:00:58.051Z,17.20
2022-10-22T22:03:24.899Z,17.13
2022-10-22T22:05:56.548Z,16.90
2022-10-22T22:08:22.864Z,16.17
2022-10-22T22:10:49.217Z,15.57
2022-10-22T22:13:17.258Z,14.80
2022-10-22T22:15:43.602Z,21.17
2022-10-22T22:18:09.918Z,19.60
2022-10-22T22:20:36.735Z,17.13
2022-10-22T22:23:03.129Z,22.63
2022-10-22T22:25:29.472Z,19.43
2022-10-22T22:27:55.799Z,20.80
2022-10-22T22:30:22.138Z,21.07
2022-10-22T22:32:48.489Z,21.33
2022-10-22T22:35:14.834Z,24.00
2022-10-22T22:37:41.518Z,23.77
2022-10-22T22:40:08.260Z,22.30
2022-10-22T22:42:34.578Z,20.77
2022-10-22T22:45:00.919Z,19.33
2022-10-22T22:47:27.237Z,17.83
2022-10-22T22:49:53.578Z,18.40
2022-10-22T22:54:47.647Z,22.67
2022-10-22T22:57:14.394Z,23.40
2022-10-22T22:59:40.896Z,13.23
2022-10-22T23:02:07.264Z,20.40
2022-10-22T23:04:33.662Z,21.47
2022-10-22T23:06:59.988Z,18.30
2022-10-22T23:09:26.349Z,18.70
2022-10-22T23:11:52.740Z,21.17
2022-10-22T23:14:19.794Z,19.20
2022-10-22T23:16:48.470Z,19.90
2022-10-22T23:19:16.010Z,22.43
2022-10-22T23:21:44.873Z,16.80
2022-10-22T23:24:12.602Z,17.43
2022-10-22T23:26:40.399Z,20.17
2022-10-22T23:29:08.132Z,24.37
2022-10-22T23:31:34.640Z,24.47
2022-10-22T23:34:01.418Z,25.77
2022-10-22T23:36:27.829Z,20.33
2022-10-22T23:38:54.588Z,20.90
2022-10-22T23:41:21.113Z,21.53
2022-10-22T23:43:47.458Z,19.63
2022-10-22T23:46:13.926Z,18.17
2022-10-22T23:48:40.483Z,24.67
2022-10-22T23:51:07.717Z,25.27
2022-10-22T23:53:34.066Z,23.97
2022-10-22T23:56:04.131Z,22.37
2022-10-22T23:58:30.463Z,31.03
